Aérodrome :
LOGIN :

S'inscrire | Disclaimer

   EN    FR    IT 

 










Légende :    VFR   VFR Marginal   IFR   IFR Intensif   IFR Très Intensif
Visi : 
Plafond : 
>= 8 km
>= 3000ft
5 à 8 km
1000 à 3000 ft
1500m à 5 km
500 à 1000 ft
800 à 1500m
200 à 500 ft
< 800m
< 200 ft
Symboles :   Orages  Brouillard  Fortes neiges  Fortes précipitations  Vent > 20 kt
SIGMETs :   Divers  Orages  Givrage  Turbulence  Onde Orograph.  Cendres Volcan.






- Altitude de l'aérodrome : 412 ft
- Code IATA : ADB


LTBJ - Adnan Menderes

DERNIER METAR :
  • 270950Z 23010KT 200V270 9999 BKN030 17/10 Q1013 BECMG 35013KT

METARs EXPIRÉS :
  • 270920Z VRB03KT 9999 BKN030 17/11 Q1013 BECMG 35013KT
  • 270850Z 23005KT 150V270 9999 BKN030 17/10 Q1013 BECMG 35013KT RMK RWY16 36005KT 340V050
  • 270820Z 25008KT 220V280 9999 BKN030 16/10 Q1013 BECMG 35013KT
  • 270750Z 24009KT 9999 BKN030 17/12 Q1013 BECMG 35013KT
  • 270720Z 24011KT 9999 BKN030 17/12 Q1013 BECMG 35013KT
  • 270650Z 21008KT 170V240 9999 BKN030 16/13 Q1013 BECMG 35013KT

TAF AMD TAF LTBJ
Valide du 27 à 08h jusqu'au 28 à 06h UTC


270830Z 2708/2806 35013KT 9999 SCT030 BKN100
TEMPO 2708/2712 -TSRA FEW020CB BKN025
TEMPO 2712/2716 -TSRA FEW020CB BKN025
BECMG 2716/2718 VRB02KT
BECMG 2801/2803 CAVOK



MET'MAP, la Météo Aéronautique d'un coup d'oeil ! - Copyright ORBIFLY Décembre 2007 - Disclaimer

ORBIFLY MET'MAP TEAM :

Programmation & Développement : Alexandra Zaïnal
Sur une idée originale de : Baudouin d'Aumeries
Assistance à la programmation : Marc-Olivier Méhu
Soutien technique & logistique : Manuel Goepfert

Contact : metmap@orbifly.com




SOURCES & CREDITS :

   NOAA